Tiempo atmosférico en la estación meteorológica de Baza, Granada (801 m.)



Fecha
DESCASC
Temp. máxima en grados centígrados (hora)
DESCASC
Temp. mínima en grados centígrados (hora)
DESCASC
Temp. media en grados centígrados
DESCASC
Racha de viento máxima en m/sg (hora)
DESCASC
Velocidad máxima media en intervalos de 10 minutos(hora)
DESCASC
Precipitaciones diarias en mm
DESCASC
Precipitaciones de 00:00 a 06:00 en mm
DESCASC
Precipitaciones de 06:00 a 12:00 en mm
DESCASC
Precipitaciones de 12:00 a 18:00 en mm
DESCASC
Precipitaciones de 18:00 a 24:00 en mm
DESCASC
16-01-2020 14.9 (17:30) -4.5 (08:30) 5.2 3.61 (21:00) 3.33 (21:00) 0 0 0 0 0
15-01-2020 14.4 (16:30) -3.3 (07:20) 5.5 4.44 (15:30) 3.33 (17:00) 0 0 0 0 0
14-01-2020 9.1 (14:50) -4.6 (07:40) 2.3 5.83 (20:30) 3.61 (15:40) 0 0 0 0 0
13-01-2020 11.9 (16:00) -5.5 (08:40) 3.2 8.06 (15:50) 5 (15:40) 0 0 0 0 0
12-01-2020 11.5 (16:00) -4.5 (-00:0) 3.5 7.22 (14:50) 4.72 (14:40) 0 0 0 0 0
11-01-2020 13.4 (17:50) -1 (-00:0) 6.2 5.28 (16:40) 3.06 (00:20) 0 0 0 0 0
10-01-2020 10.9 (16:20) -1 (-00:0) 4.9 8.61 (02:50) 5.28 (01:10) 0 0 0 0 0
09-01-2020 12.7 (16:20) -2 (-00:0) 5.3 8.89 (20:30) 6.11 (20:30) 0 0 0 0 0
08-01-2020 15.8 (16:50) -3.7 (-00:0) 6.1 7.5 (16:30) 4.17 (18:30) 0 0 0 0 0
07-01-2020 15.5 (15:20) -4 (-00:0) 5.8 4.44 (11:50) 3.33 (20:00) 0 0 0 0 0
06-01-2020 16.7 (17:40) -3.9 (-00:0) 6.4 3.33 (19:10) 2.78 (21:30) 0 0 0 0 0
05-01-2020 14.4 (17:20) -3.4 (-00:0) 5.5 5.83 (17:50) 3.61 (17:50) 0 0 0 0 0
04-01-2020 12.5 (15:20) 0.8 (00:00) 6.7 7.78 (17:10) 5.56 (17:10) 0 0 0 0 0
03-01-2020 13.8 (15:20) -2.8 (-00:0) 5.5 5 (19:10) 3.33 (19:10) 0 0 0 0 0
02-01-2020 16.7 (17:00) -3.2 (-00:0) 6.8 5.56 (18:40) 3.89 (18:30) 0.4 0 0 0.4 0
01-01-2020 16.1 (17:30) -2 (-00:0) 7.1 3.61 (19:40) 3.06 (19:40) 0 0 0 0 0
31-12-2019 14.8 (14:10) -2.2 (-00:0) 6.3 7.78 (16:10) 5.28 (16:30) 0 0 0 0 0
30-12-2019 13.8 (14:40) -2.2 (-00:0) 5.8 6.94 (11:10) 4.44 (11:10) 0.2 0 0.2 0 0
29-12-2019 14 (15:10) -2.1 (-00:0) 6 8.33 (12:00) 5 (12:40) 0 0 0 0 0
28-12-2019 19.3 (15:10) -0.2 (00:00) 9.5 8.06 (18:30) 4.72 (18:30) 0 0 0 0 0
27-12-2019 18.6 (14:40) 1.6 (00:00) 10.1 5.83 (15:50) 3.89 (17:10) 0 0 0 0 0
26-12-2019 17.2 (17:30) 0.4 (00:00) 8.8 3.89 (19:30) 2.78 (19:30) 0 0 0 0 0
25-12-2019 17.7 (17:30) -0.9 (-00:0) 8.4 3.61 (22:20) 2.78 (22:20) 0 0 0 0 0
24-12-2019 18 (17:30) -0.1 (00:00) 8.9 3.89 (21:20) 3.33 (21:40) 0 0 0 0 0
23-12-2019 19.5 (17:10) 4.6 (00:00) 12 14.72 (07:10) 10.83 (06:40) 0 0 0 0 0
22-12-2019 15.1 (14:20) 8.6 (00:00) 11.9 -- (--) -- (--) -- -- 0 0 0
21-12-2019 -- (--) -- (--) -- -- (--) -- (--) -- 0 0 0 --

Gráficas

Temp. máximas Temp. mínimas Temp. medias Precipitaciones Rachas de viento máximas Velocidades máximas media en intervalos de 10 minutos

Datos horarios

Fecha y hora oficial Temperatura (ºC) Velocidad del viento (km/h) Dirección del viento Racha (km/h) Dirección de racha Precipitación (mm) Presión (hPa) Tendencia (hPa) Humedad (%)
2020-01-19 23:00:00 2.2 4 Norte 23 Norte 1 926.8 1 91
2020-01-19 22:00:00 3.4 21 Norte 36 Norte 0 926.7 1.4 80
2020-01-19 21:00:00 4.1 13 Nordeste 35 Nordeste 0 926.1 1.1 72
2020-01-19 20:00:00 4.1 17 Norte 34 Norte 0 925.8 1.4 75
2020-01-19 19:00:00 4.7 19 Nordeste 43 Nordeste 0.2 925.3 0.9 77
2020-01-19 18:00:00 5 14 Noroeste -- -- -- 925 0.5 89
2020-01-19 17:00:00 5.8 24 Oeste 36 Oeste 0.2 924.4 -0.6 83
2020-01-19 16:00:00 5.7 23 Oeste 42 Oeste 0.2 924.4 -1.4 87
2020-01-19 15:00:00 7.2 23 Oeste 39 Oeste 0 924.5 -1.9 77
2020-01-19 14:00:00 7.3 20 Oeste 37 Oeste 0 925 -1.3 69
2020-01-19 13:00:00 7.3 22 Oeste 35 Oeste 0 925.8 -0.5 74
2020-01-19 12:00:00 6.9 27 Oeste 43 Oeste 0 926.4 0.2 81
2020-01-19 11:00:00 5.8 23 Oeste 36 Oeste 0 926.3 0.1 87
2020-01-19 10:00:00 4.7 25 Oeste 37 Oeste 0 926.3 0 92
2020-01-19 09:00:00 4.3 21 Oeste 35 Oeste 0 926.2 -0.3 91
2020-01-19 08:00:00 4.5 20 Oeste 34 Noroeste 0.8 926.2 -0.3 92
2020-01-19 07:00:00 6.3 21 Oeste 36 Noroeste 0 926.3 -1.1 82
2020-01-19 06:00:00 6.7 18 Noroeste 39 Noroeste 0 926.5 -2.2 86
2020-01-19 05:00:00 7.2 24 Oeste 45 Oeste 0.6 926.5 -2.8 90
2020-01-19 04:00:00 9 21 Oeste 37 Oeste 0 927.4 -2.3 74
2020-01-19 03:00:00 9.2 13 Oeste 41 Oeste 0 928.7 -1.6 88
2020-01-19 02:00:00 9.3 26 Noroeste 43 Oeste 0 929.3 -1.5 93
2020-01-19 01:00:00 10.9 15 Noroeste 32 Oeste 0 929.7 -1.9 89
2020-01-19 00:00:00 11.8 13 Oeste 42 Oeste 0 930.3 -2.4 80
2020-01-18 23:00:00 12 21 Oeste 42 Oeste 0 930.8 -2.5 79
2020-01-18 22:00:00 11.6 20 Oeste 37 Oeste 0 931.6 -2.2 82
2020-01-18 21:00:00 10.1 9 Noroeste 20 Noroeste 0 932.7 -2 87
2020-01-18 20:00:00 9.7 9 Norte 17 Norte 0 933.3 -2.3 85
2020-01-18 19:00:00 9.5 11 Norte 18 Norte 0 933.8 -2.4 81
2020-01-18 18:00:00 9 7 Nordeste 12 Norte 0 934.7 -2 85
2020-01-18 17:00:00 8.9 4 Norte 10 Norte 0 935.6 -2.3 87
2020-01-18 16:00:00 8.7 3 Sudoeste 7 Sudeste 0 936.2 -2.8 88
2020-01-18 15:00:00 7.7 3 Sur 14 Norte 0 936.7 -4 92
2020-01-18 14:00:00 6.2 10 Norte 14 Norte 0 937.9 -2.9 94
2020-01-18 13:00:00 5.5 4 Oeste 8 Sudeste 0.4 939 -0.9 95
2020-01-18 12:00:00 4.2 5 Sudeste 8 Sudeste 1.8 940.7 1.2 95
2020-01-18 11:00:00 3.8 5 Nordeste 9 Noroeste 0 940.8 1.7 91
2020-01-18 10:00:00 3.6 3 Oeste 8 Noroeste 0 939.9 0.7 91
2020-01-18 09:00:00 2 4 Sudeste 8 Este 0 939.5 0.7 96
2020-01-18 08:00:00 1.4 7 Sudeste 13 Sur 0 939.1 0.3 97
2020-01-18 07:00:00 0.9 8 Sur 10 Sudeste 0 939.2 -0.2 94
2020-01-18 06:00:00 2.3 2 Sudeste 11 Noroeste 0 938.8 -1.1 93
2020-01-18 05:00:00 2.2 4 Sudeste 7 Sudoeste 0 938.8 -1.8 88
2020-01-18 04:00:00 2.8 2 Sur 6 Sudeste 0 939.4 -1.4 81
2020-01-18 03:00:00 4 3 Sur 9 Oeste 0 939.9 -1.1 73
2020-01-18 02:00:00 4.7 6 Sur 14 Sur 0 940.6 -0.3 70
2020-01-18 01:00:00 4 10 Sudeste 14 Sudeste 0 940.8 -0.1 80
2020-01-18 00:00:00 4.5 4 Oeste 12 Sudeste 0 941 0.7 79
2020-01-17 23:00:00 4.5 6 Sur 12 Sudeste 0 940.9 0.9 81
2020-01-17 22:00:00 5.9 8 Sur 14 Oeste 0 940.9 1.4 76
2020-01-17 21:00:00 8.9 10 Oeste 17 Sudoeste 0 940.3 1.5 67
2020-01-17 20:00:00 8.7 11 Sudoeste 21 Oeste 0 940 1.3 68
2020-01-17 19:00:00 9.9 13 Oeste 21 Oeste 0 939.5 0.7 64
2020-01-17 18:00:00 12.8 4 Oeste 22 Oeste 0 938.8 -0.3 55
2020-01-17 17:00:00 14 13 Noroeste 23 Oeste 0 938.7 -1.3 49
2020-01-17 16:00:00 14.3 15 Noroeste 28 Noroeste 0 938.8 -1.8 45
2020-01-17 15:00:00 13.8 15 Noroeste 25 Noroeste 0 939.1 -2.1 45
2020-01-17 14:00:00 13.5 16 Oeste 28 Noroeste 0 940 -0.8 42
2020-01-17 13:00:00 12.8 16 Noroeste 26 Noroeste 0 940.6 0.4 45
2020-01-17 12:00:00 11 10 Noroeste 18 Noroeste 0 941.2 1.6 49
2020-01-17 11:00:00 4.3 5 Sur 10 Sudeste 0 940.8 1.4 78
2020-01-17 10:00:00 0.8 5 Norte 12 Norte 0 940.2 1.4 86
2020-01-17 09:00:00 0.6 4 Sudoeste 12 Sur 0 939.6 1 92
2020-01-17 08:00:00 0.9 5 Sur 8 Sudeste 0 939.4 1.2 91
2020-01-17 07:00:00 0.7 3 Sur 9 Sur 0 938.8 0.4 93
2020-01-17 06:00:00 -1.1 4 Sudoeste 10 Norte 0 938.6 0.2 91
2020-01-17 05:00:00 -0.3 6 Sudeste 11 Sudeste 0 938.2 -0.1 88
2020-01-17 04:00:00 0.4 6 Sur 13 Sudeste 0 938.4 0.1 87
2020-01-17 03:00:00 0.5 8 Sur 9 Sudeste 0 938.4 0.3 86
2020-01-17 02:00:00 0.6 4 Sur 7 Sur 0 938.3 0.4 81
2020-01-17 01:00:00 1.1 8 Sudeste 12 Sudeste 0 938.3 0.8 78
2020-01-17 00:00:00 1.1 9 Sudeste 12 Sudeste 0 938.1 1 79
2020-01-16 23:00:00 1.5 6 Sur 12 Sudeste 0 937.9 1.1 78
2020-01-16 22:00:00 1.9 7 Sur 13 Sur 0 937.5 1.5 75
2020-01-16 21:00:00 3 12 Sur 13 Sur 0 937.1 1.5 72
2020-01-16 20:00:00 4.6 10 Sur 12 Sur 0 936.8 1.2 64
2020-01-16 19:00:00 9.4 8 Sudoeste 11 Sudoeste 0 936 0.5 46
2020-01-16 18:00:00 14.2 4 Noroeste 10 Norte 0 935.6 -0.3 33
2020-01-16 17:00:00 14.3 5 Norte 12 Norte 0 935.6 -1 31
2020-01-16 16:00:00 13.9 5 Nordeste 11 Norte 0 935.5 -1.9 32
2020-01-16 15:00:00 12.7 5 Nordeste 11 Norte 0 935.9 -2.3 36
2020-01-16 14:00:00 10.6 6 Norte 11 Norte 0 936.6 -1.7 47
2020-01-16 13:00:00 8.2 4 Norte 8 Norte 0 937.4 -0.7 58
2020-01-16 12:00:00 4.4 5 Noroeste 8 Noroeste 0 938.2 0.6 72
2020-01-16 11:00:00 0.5 2 Sudeste 8 Noroeste 0 938.3 0.9 92
2020-01-16 10:00:00 -1.5 4 Noroeste 7 Oeste 0 938.1 0.8 96
2020-01-16 09:00:00 -4.4 5 Sudeste 10 Sudeste 0 937.6 0.4 95
2020-01-16 08:00:00 -4.3 6 Sur 9 Sudeste 0 937.4 0.1 94
2020-01-16 07:00:00 -3 3 Sur 7 Oeste 0 937.3 -0.2 94
2020-01-16 06:00:00 -3.3 2 Sur 8 Sudeste 0 937.2 -0.2 94
2020-01-16 05:00:00 -2.9 3 Sudoeste 9 Sur 0 937.3 0.2 93
2020-01-16 04:00:00 -2.8 8 Sur 9 Sur 0 937.5 0.1 93
2020-01-16 03:00:00 -1.8 2 Oeste 7 Sur 0 937.4 0.3 91
2020-01-16 02:00:00 -1.3 3 Sudoeste 5 Sudoeste 0 937.1 0 89
2020-01-16 01:00:00 -0.1 4 Oeste 9 Norte 0 937.4 0.5 86
2020-01-16 00:00:00 0.6 8 Sur 12 Sudeste 0 937.1 0.3 82
2020-01-15 23:00:00 1 11 Sudeste 13 Sudeste 0 937.1 0.7 82
2020-01-15 22:00:00 1.1 9 Sudeste 12 Sudeste 0 936.9 0.9 82
2020-01-15 21:00:00 2.6 7 Sudeste 9 Sudeste 0 936.8 1.4 76
2020-01-15 20:00:00 5.3 7 Sudeste 12 Sudoeste 0 936.4 1.3 63
2020-01-15 19:00:00 9.3 8 Oeste 12 Sudoeste 0 936 0.9 48
2020-01-15 18:00:00 13.7 6 Oeste 13 Oeste 0 935.4 0.3 37
2020-01-15 17:00:00 14.2 12 Oeste 16 Oeste 0 935.1 -0.4 33
2020-01-15 16:00:00 14.1 8 Noroeste 16 Noroeste 0 935.1 -0.9 37
2020-01-15 15:00:00 11.8 3 Norte 9 Norte 0 935.1 -1.4 54
2020-01-15 14:00:00 8.5 5 Norte 9 Norte 0 935.5 -0.9 66
2020-01-15 13:00:00 6.7 4 Oeste 8 Oeste 0 936 0.5 73
2020-01-15 12:00:00 3.1 3 Norte 8 Norte 0 936.5 1.6 91
2020-01-15 11:00:00 0.2 4 Oeste 7 Oeste 0 936.4 1.9 99
2020-01-15 10:00:00 -1.9 2 Sudoeste 7 Sur 0 935.5 1.7 99
2020-01-15 09:00:00 -3 5 Sur 8 Sudeste 0 934.9 1.4 99
2020-01-15 08:00:00 -2.7 4 Sudoeste 9 Sur 0 934.5 1.1 99
2020-01-15 07:00:00 -3.2 6 Sudeste 9 Sudeste 0 933.8 0.5 98
2020-01-15 06:00:00 -2.7 4 Sur 7 Sur 0 933.5 0.1 97
2020-01-15 05:00:00 -1.9 4 Noroeste 8 Sur 0 933.4 0.3 97
2020-01-15 04:00:00 -1.6 5 Sur 10 Sur 0 933.3 0.3 97
2020-01-15 03:00:00 -1.8 5 Sudeste 8 Este 0 933.4 0.4 94
2020-01-15 02:00:00 -1.2 2 Oeste 7 Noroeste 0 933.1 0.1 91
2020-01-15 01:00:00 0 4 Sur 13 Sur 0 933 0.2 88
2020-01-15 00:00:00 0.2 10 Sur 13 Sur 0 933 0.4 89
2020-01-14 23:00:00 1.6 7 Sur 15 Oeste 0 933 0.5 80
2020-01-14 22:00:00 4.3 10 Oeste 19 Noroeste 0 932.8 1.1 80
2020-01-14 21:00:00 5.3 8 Sudoeste 21 Noroeste 0 932.6 1.5 74
2020-01-14 20:00:00 4.7 6 Sudeste 17 Sudeste 0 932.5 1.5 77
2020-01-14 19:00:00 5.9 8 Sur 10 Sur 0 931.7 0.9 69
2020-01-14 18:00:00 8.5 5 Sudoeste 17 Oeste 0 931.1 0.1 57
2020-01-14 17:00:00 8.6 10 Oeste 19 Oeste 0 931 -0.5 56
2020-01-14 16:00:00 8.9 10 Oeste 19 Oeste 0 930.8 -1.5 53
2020-01-14 15:00:00 8.8 3 Nordeste 10 Nordeste 0 931 -2.1 55
2020-01-14 14:00:00 8 6 Norte 10 Noroeste 0 931.5 -1.7 57
2020-01-14 13:00:00 6.9 3 Nordeste 10 Nordeste 0 932.3 -0.3 60
2020-01-14 12:00:00 3.8 3 Noroeste 7 Oeste 0 933.1 0.6 69
2020-01-14 11:00:00 -0.1 3 Noroeste 8 Noroeste 0 933.2 0.9 89
2020-01-14 10:00:00 -2.6 0 Calma 7 Sudeste 0 932.6 0.8 97
2020-01-14 09:00:00 -4.6 6 Sudeste 8 Sudoeste 0 932.5 0.9 95
2020-01-14 08:00:00 -4.3 4 Sudoeste 7 Sudoeste 0 932.3 0.5 94
2020-01-14 07:00:00 -3.9 3 Oeste 5 Oeste 0 931.8 -0.3 92
2020-01-14 06:00:00 -3.4 3 Oeste 8 Sudeste 0 931.6 -0.5 90
2020-01-14 05:00:00 -3.3 2 Noroeste 10 Sur 0 931.8 -1 93
2020-01-14 04:00:00 -2.7 5 Noroeste 14 Sudeste 0 932.1 -0.9 91
2020-01-14 03:00:00 -3.3 10 Sur 12 Sur 0 932.1 -1.2 91
2020-01-14 02:00:00 -2.5 5 Sur 12 Sudeste 0 932.8 -0.4 88
2020-01-14 01:00:00 -1.2 4 Sur 12 Sur 0 933 -0.1 80
2020-01-14 00:00:00 0 7 Sur 11 Sur 0 933.3 0 73
2020-01-13 23:00:00 2.6 6 Sudoeste 18 Oeste 0 933.2 0 69
2020-01-13 22:00:00 4.8 12 Sudoeste 18 Oeste 0 933.1 0.5 55
2020-01-13 21:00:00 5.5 6 Sudoeste 17 Sudoeste 0 933.3 0.9 53
2020-01-13 20:00:00 6.4 5 Sudoeste 18 Oeste 0 933.2 0.8 51
2020-01-13 19:00:00 7.9 8 Sudoeste 17 Oeste 0 932.6 -0.4 46
2020-01-13 18:00:00 10.3 9 Oeste 19 Oeste 0 932.4 -0.7 40
2020-01-13 17:00:00 11.6 11 Noroeste 26 Oeste 0 932.4 -1.6 38
2020-01-13 16:00:00 11.8 13 Noroeste 29 Noroeste 0 933 -2.2 32
2020-01-13 15:00:00 10.8 8 Norte 14 Norte 0 933.1 -3.1 47
2020-01-13 14:00:00 9.5 3 Nordeste 8 Este 0 934 -2.2 52
2020-01-13 13:00:00 7.5 2 Sudoeste 8 Norte 0 935.2 -1 60
2020-01-13 12:00:00 2.4 6 Noroeste 8 Norte 0 936.2 0.2 80
2020-01-13 11:00:00 -0.8 5 Noroeste 8 Noroeste 0 936.2 0.4 96
2020-01-13 10:00:00 -2.8 2 Oeste 5 Noroeste 0 936.2 0.5 97
2020-01-13 09:00:00 -5.5 3 Sur 7 Sur 0 936 0.2 95
2020-01-13 08:00:00 -5.3 5 Sur 6 Sudeste 0 935.8 -0.5 95
2020-01-13 07:00:00 -4.9 3 Sur 5 Sudeste 0 935.7 -1 95
2020-01-13 06:00:00 -4.2 4 Sur 6 Sudeste 0 935.8 -1.1 95
2020-01-13 05:00:00 -3.8 4 Sudoeste 12 Sudeste 0 936.3 -0.9 95
2020-01-13 04:00:00 -3.7 4 Sur 7 Sudeste 0 936.7 -1.1 94
2020-01-13 03:00:00 -3.2 0 Calma 8 Oeste 0 936.9 -1.2 92
2020-01-13 02:00:00 -2.6 6 Sur 9 Sudeste 0 937.2 -0.7 94
2020-01-13 01:00:00 -2.3 7 Sur 8 Sur 0 937.8 -0.1 92
2020-01-13 00:00:00 -1.5 5 Sur 6 Sudoeste 0 938.1 0.4 88
2020-01-12 23:00:00 -0.1 5 Sur 12 Sudeste 0 937.9 0.2 82
2020-01-12 22:00:00 0.4 11 Sudeste 13 Sudeste 0 937.9 1.1 83
2020-01-12 21:00:00 1.6 11 Sudeste 15 Sudeste 0 937.7 1.3 80
2020-01-12 20:00:00 3.8 9 Sur 13 Sudeste 0 937.7 1.4 70
2020-01-12 19:00:00 7.6 5 Sudoeste 8 Noroeste 0 936.8 0.4 57
2020-01-12 18:00:00 10.6 8 Noroeste 21 Noroeste 0 936.4 -0.2 48
2020-01-12 17:00:00 11.5 11 Noroeste 23 Noroeste 0 936.3 -1.1 46
2020-01-12 16:00:00 11.3 15 Noroeste 25 Oeste 0 936.4 -2.2 43
2020-01-12 15:00:00 11 15 Noroeste 26 Oeste 0 936.6 -2.9 51
2020-01-12 14:00:00 8.8 6 Norte 10 Nordeste 0 937.4 -2.3 60
2020-01-12 13:00:00 6 4 Norte 11 Norte 0 938.6 -0.8 67
2020-01-12 12:00:00 2.6 7 Norte 11 Norte 0 939.5 0.5 86
2020-01-12 11:00:00 -0.5 3 Norte 5 Noroeste 0 939.7 0.9 97
2020-01-12 10:00:00 -2.9 0 Calma 6 Noroeste 0 939.4 0.7 98
2020-01-12 09:00:00 -4.3 3 Oeste 9 Sudeste 0 939 0.4 96
2020-01-12 08:00:00 -4.2 6 Sur 8 Sur 0 938.8 -0.1 96
2020-01-12 07:00:00 -4.3 4 Sudeste 5 Sudeste 0 938.7 -0.5 95
2020-01-12 06:00:00 -3.7 3 Oeste 7 Sudeste 0 938.6 -0.3 95
2020-01-12 05:00:00 -3.3 4 Sur 5 Sudeste 0 938.9 0.1 95
2020-01-12 04:00:00 -2.6 3 Noroeste 8 Sudeste 0 939.2 0.2 95
2020-01-12 03:00:00 -2.4 7 Sudeste 9 Sudeste 0 938.9 -0.3 95
2020-01-12 02:00:00 -1.3 2 Sur 10 Sudeste 0 938.8 -0.2 93
2020-01-12 01:00:00 -0.7 7 Sudeste 11 Sur 0 939 0.3 91
2020-01-12 00:00:00 0.2 6 Sur 9 Sur 0 939.2 0.9 92
2020-01-11 23:00:00 0.9 6 Este 11 Este 0 939 0.9 89
2020-01-11 22:00:00 1.7 4 Norte 13 Sudeste 0 938.7 1.2 86
2020-01-11 21:00:00 2.4 10 Sudeste 13 Sudeste 0 938.3 1.3 84
2020-01-11 20:00:00 3.4 9 Sudeste 12 Sudeste 0 938.1 1.2 81
2020-01-11 19:00:00 7.6 6 Sudeste 7 Sudeste 0 937.5 0.6 63
2020-01-11 18:00:00 12 3 Noroeste 9 Este 0 937 0 47
2020-01-11 17:00:00 12 4 Este 19 Sudeste 0 936.9 -0.6 47
2020-01-11 16:00:00 11.4 8 Norte 13 Norte 0 936.9 -1.7 51
2020-01-11 15:00:00 12 5 Sudeste 15 Norte 0 937 -2.3 49
2020-01-11 14:00:00 10.7 5 Noroeste 11 Norte 0 937.5 -1.5 54
2020-01-11 13:00:00 8.5 2 Sudoeste 6 Sur 0 938.6 0.5 61
2020-01-11 12:00:00 4.9 3 Sudoeste 6 Oeste 0 939.3 1.5 72
2020-01-11 11:00:00 3 2 Noroeste 7 Noroeste 0 939 1.6 84
2020-01-11 10:00:00 0.6 2 Sur 6 Norte 0 938.1 1 96
2020-01-11 09:00:00 -0.8 3 Sudeste 7 Noroeste 0 937.8 1 96
2020-01-11 08:00:00 -0.7 4 Sudoeste 12 Sudeste 0 937.4 0.8 96
2020-01-11 07:00:00 -0.2 0 Calma 5 Sudeste 0 937.1 0.2 93
2020-01-11 06:00:00 0.6 2 Noroeste 7 Sudeste 0 936.8 -0.2 92
2020-01-11 05:00:00 0.6 5 Sur 8 Sudeste 0 936.6 0.1 90
2020-01-11 04:00:00 1 3 Sudoeste 8 Sur 0 936.9 0.4 89
2020-01-11 03:00:00 0.5 3 Oeste 6 Sur 0 937 0.4 90
2020-01-11 02:00:00 0.2 2 Sur 14 Noroeste 0 936.5 0.6 84
2020-01-11 01:00:00 1.5 9 Oeste 17 Sudoeste 0 936.5 0.7 79
2020-01-11 00:00:00 0.3 4 Este 12 Sudeste 0 936.6 1.3 90
2020-01-10 23:00:00 0.9 4 Sudoeste 10 Sudeste 0 935.9 1.3 90
2020-01-10 22:00:00 1.8 6 Sur 11 Sudeste 0 935.8 1.8 81
2020-01-10 21:00:00 5 5 Noroeste 10 Nordeste 0 935.3 2.3 67
2020-01-10 20:00:00 6.7 5 Nordeste 19 Nordeste 0 934.6 2 74
2020-01-10 19:00:00 8 7 Oeste 13 Oeste 0 934 1.3 72
2020-01-10 18:00:00 9 8 Oeste 21 Noroeste 0 933 0.3 71
2020-01-10 17:00:00 10 14 Oeste 22 Oeste 0 932.6 -0.7 68
2020-01-10 16:00:00 10.6 16 Oeste 24 Oeste 0 932.7 -1.4 65
2020-01-10 15:00:00 9.7 15 Noroeste 23 Norte 0 932.7 -2.3 75
2020-01-10 14:00:00 8 10 Norte 15 Norte 0 933.3 -1.7 86
2020-01-10 13:00:00 5.5 9 Norte 14 Norte 0 934.1 -0.7 90
2020-01-10 12:00:00 4.3 4 Norte 7 Noroeste 0 935 1.3 97
2020-01-10 11:00:00 2.8 4 Sudeste 9 Sur 0 935 1.6 99
2020-01-10 10:00:00 1 5 Sur 6 Sur 0 934.8 0.9 98
2020-01-10 09:00:00 0 4 Nordeste 10 Sudeste 0 933.7 0.2 96
2020-01-10 08:00:00 -1 9 Sudeste 11 Sudeste 0 933.4 0 94
2020-01-10 07:00:00 0.3 2 Sudeste 9 Sudeste 0 933.9 0.1 90
2020-01-10 06:00:00 2.3 0 Calma 12 Noroeste 0 933.5 -0.6 91
2020-01-10 05:00:00 4 7 Oeste 22 Oeste 0 933.4 -0.5 85
2020-01-10 04:00:00 5.7 12 Noroeste 21 Noroeste 0 933.8 -0.6 79
2020-01-10 03:00:00 6.5 15 Oeste 31 Oeste 0 934.1 -0.5 78
2020-01-10 02:00:00 6.3 16 Oeste 29 Oeste 0 933.9 -0.1 79
2020-01-10 01:00:00 6.1 18 Oeste 29 Oeste 0 934.4 0 82
2020-01-10 00:00:00 5.2 7 Noroeste 19 Norte 0 934.6 -0.3 78
2020-01-09 23:00:00 6.8 8 Sudoeste 31 Oeste 0 934 -0.9 68
2020-01-09 22:00:00 7.6 8 Noroeste 23 Oeste 0 934.4 0.6 62
2020-01-09 21:00:00 9 12 Oeste 32 Oeste 0 934.9 1.2 60
2020-01-09 20:00:00 8.5 14 Oeste 30 Oeste 0 934.9 1.1 60
2020-01-09 19:00:00 9.2 9 Oeste 21 Oeste 0 933.8 -0.1 57
2020-01-09 18:00:00 11.4 9 Oeste 23 Oeste 0 933.7 -0.6 46
2020-01-09 17:00:00 12.6 16 Oeste 29 Oeste 0 933.8 -1.4 42
2020-01-09 16:00:00 12.5 15 Noroeste 27 Oeste 0 933.9 -2 44
2020-01-09 15:00:00 12.2 10 Noroeste 18 Noroeste 0 934.3 -2.5 45
2020-01-09 14:00:00 10.7 4 Noroeste 10 Norte 0 935.2 -1.7 65
2020-01-09 13:00:00 7.8 6 Norte 11 Norte 0 935.9 -0.6 71
2020-01-09 12:00:00 5.1 5 Norte 9 Noroeste 0 936.8 0.8 84
2020-01-09 11:00:00 1.8 2 Norte 5 Nordeste 0 936.9 0.8 97
2020-01-09 10:00:00 -0.2 4 Oeste 7 Oeste 0 936.5 0.1 98
2020-01-09 09:00:00 -2 4 Sur 10 Sudeste 0 936 -0.5 98
2020-01-09 08:00:00 -1.6 8 Sudeste 10 Sudeste 0 936.1 -0.6 98
2020-01-09 07:00:00 -0.9 3 Este 6 Sudeste 0 936.4 -0.6 98
2020-01-09 06:00:00 -0.2 4 Nordeste 8 Sudeste 0 936.5 -0.5 98
2020-01-09 05:00:00 0.6 6 Sudeste 10 Sudeste 0 936.7 -0.6 97
2020-01-09 04:00:00 -0.6 6 Sudeste 10 Sudeste 0 937 -0.4 94
2020-01-09 03:00:00 0.1 10 Sudeste 11 Sudeste 0 937 -0.9 94
2020-01-09 02:00:00 0.6 4 Sudeste 12 Sudeste 0 937.3 -0.6 94
2020-01-09 01:00:00 1.6 9 Sur 13 Sur 0 937.4 -0.3 94
2020-01-09 00:00:00 2.2 9 Sur 12 Sur 0 937.9 0.4 92
2020-01-08 23:00:00 3.4 2 Sudoeste 13 Sudeste 0 937.9 0.5 91
2020-01-08 22:00:00 4.8 12 Sudeste 15 Sudeste 0 937.7 0.9 92
2020-01-08 21:00:00 5.4 5 Nordeste 11 Sudeste 0 937.5 1.2 80
2020-01-08 20:00:00 7.5 7 Sudeste 23 Sudeste 0 937.4 1.5 68
2020-01-08 19:00:00 9 13 Sudeste 26 Sudeste 0 936.8 1.1 59
2020-01-08 18:00:00 12.3 12 Sudeste 22 Sudeste 0 936.3 0.3 44
2020-01-08 17:00:00 15.3 12 Sudeste 27 Este 0 935.9 -0.9 32
2020-01-08 16:00:00 15.1 4 Noroeste 10 Norte 0 935.7 -1.7 36
2020-01-08 15:00:00 13.6 2 Norte 6 Noroeste 0 936 -2.1 34
2020-01-08 14:00:00 11.7 4 Norte 9 Norte 0 936.8 -1.8 41
2020-01-08 13:00:00 8.8 5 Norte 9 Norte 0 937.4 -1 57
2020-01-08 12:00:00 5.8 2 Noroeste 5 Nordeste 0 938.1 0.2 69
2020-01-08 11:00:00 1.1 3 Sudoeste 7 Oeste 0 938.6 0.8 90
2020-01-08 10:00:00 -1.4 2 Sur 8 Sudeste 0 938.4 0.6 97
2020-01-08 09:00:00 -3.4 4 Sudoeste -- -- -- 937.9 0.4 95
2020-01-08 08:00:00 -3.2 5 Sur 8 Sur 0 937.8 0.1 95
2020-01-08 07:00:00 -3.5 4 Sur 5 Sudeste 0 937.8 0 94
2020-01-08 06:00:00 -2.8 0 Calma 8 Sudeste 0 937.5 -0.4 94
2020-01-08 05:00:00 -2.8 5 Sur 6 Sudeste 0 937.7 -0.3 93
2020-01-08 04:00:00 -2.2 3 Sur 10 Sudeste 0 937.8 -0.6 92
2020-01-08 03:00:00 -1.5 3 Oeste 5 Oeste 0 937.9 -0.8 91
2020-01-08 02:00:00 -1 4 Sudoeste 10 Sudeste 0 938 -0.5 91
2020-01-08 01:00:00 -0.3 6 Sudoeste 7 Sur 0 938.4 -0.2 88
2020-01-08 00:00:00 0.5 3 Oeste 9 Sur 0 938.7 0.3 81
2020-01-07 23:00:00 1.8 7 Sur 11 Sur 0 938.5 0.2 75
2020-01-07 22:00:00 3.7 6 Sudoeste 12 Sur 0 938.6 0.6 65
2020-01-07 21:00:00 4 10 Sudeste 13 Sudeste 0 938.4 1 68
2020-01-07 20:00:00 5.9 12 Sudeste 15 Sudeste 0 938.3 1 62
2020-01-07 19:00:00 10.6 6 Sur 16 Oeste 0 938 0.7 42
2020-01-07 18:00:00 13.9 4 Norte 11 Noroeste 0 937.4 -0.3 40
2020-01-07 17:00:00 15.1 5 Norte 8 Norte 0 937.3 -1.1 40
2020-01-07 16:00:00 14.7 4 Norte 8 Norte 0 937.3 -2 35
2020-01-07 15:00:00 14.2 3 Nordeste 7 Norte 0 937.7 -2.3 36
2020-01-07 14:00:00 11.7 4 Nordeste 7 Norte 0 938.4 -2 42
2020-01-07 13:00:00 8.8 3 Noroeste 9 Norte 0 939.3 -0.8 51
2020-01-07 12:00:00 5.1 6 Norte 16 Norte 0 940 0.5 70
2020-01-07 11:00:00 0.9 2 Sudoeste 8 Oeste 0 940.4 1.1 89
2020-01-07 10:00:00 -1.9 3 Sudeste 6 Sudoeste 0 940.1 0.8 97
2020-01-07 09:00:00 -3 5 Oeste 9 Sudeste 0 939.5 0.3 96
2020-01-07 08:00:00 -3.8 5 Sur 9 Sudeste 0 939.3 0.2 94
2020-01-07 07:00:00 -3.3 6 Sur 8 Sur 0 939.3 0.2 95
2020-01-07 06:00:00 -2.9 8 Sur 10 Sur 0 939.2 0.3 94
2020-01-07 05:00:00 -2.7 5 Sudoeste 8 Sudeste 0 939.1 0.2 94
2020-01-07 04:00:00 -2.2 4 Sur 7 Sudeste 0 939.1 0.2 93
2020-01-07 03:00:00 -2.1 3 Oeste 7 Sudeste 0 938.9 0 93
2020-01-07 02:00:00 -1.8 6 Sur 7 Sur 0 938.9 0.3 91
2020-01-07 01:00:00 -0.8 5 Sudoeste 9 Sur 0 938.9 0.8 88
2020-01-07 00:00:00 -0.7 8 Sudeste 9 Sudeste 0 938.9 1.1 81
2020-01-06 23:00:00 0.8 8 Sur 11 Sudeste 0 938.6 1.4 72
2020-01-06 22:00:00 2.2 8 Sur 12 Sudeste 0 938.1 1.5 67
2020-01-06 21:00:00 3.3 6 Sudeste 12 Sudeste 0 937.8 1.7 62
2020-01-06 20:00:00 5.3 5 Sur 12 Sur 0 937.2 1.5 57
2020-01-06 19:00:00 8.6 8 Sur 12 Sur 0 936.6 0.9 45
2020-01-06 18:00:00 15.2 6 Sudeste 9 Sudeste 0 936.1 0.2 27
2020-01-06 17:00:00 16.1 5 Sudeste 9 Sudeste 0 935.7 -0.8 26
2020-01-06 16:00:00 15.6 3 Sur 9 Norte 0 935.7 -1.4 28
2020-01-06 15:00:00 13.7 5 Norte 9 Norte 0 935.9 -2.1 34
2020-01-06 14:00:00 11.5 6 Norte 12 Noroeste 0 936.5 -1.7 43
2020-01-06 13:00:00 10 2 Noroeste 6 Noroeste 0 937.1 -0.8 46
2020-01-06 12:00:00 5.5 2 Oeste 7 Oeste 0 938 0.5 63
2020-01-06 11:00:00 1.2 3 Oeste 6 Oeste 0 938.2 1.3 86
2020-01-06 10:00:00 -1.3 2 Oeste 8 Sur 0 937.9 1.3 96